Search for airport 
image banner adimage banner adimage banner ad
image banner ad

16PA - Gregg

Located in Eighty Four, United States

ICAO - 16PA, IATA -

Data provided by Airmate  

General information

Coordinates: N40°10'50" W80°7'39"
Elevation is 1200 feet MSL.
Magnetic variation is -07° East
View others Airports in Pennsylvania

Operational data

Special qualification required
Current time UTC:
Current local time:
Weather at : KAFJ - Washington County ( 15 km )
METAR: KAFJ 071356Z AUTO 32004KT 10SM -RA OVC009 06/06 A2993 RMK AO2 CIG 006V011 SLP138 P0003 T00610056
View NOTAMs / SUP AIP / TFR affecting this airport [VIEW]
Communications frequencies: [VIEW]

Runways:

RWY identifierQFULength (ft)Width (ft)SurfaceLDA (ft)
092500100GRASS
272500100GRASS

Airport contact information

Address: Eighty Four United States

Satellite view of 16PA